createdAt,value
2023-01-12T00:03:04.567Z,13.27
2023-01-12T00:08:48.587Z,13.23
2023-01-12T00:14:32.374Z,13.22
2023-01-12T00:20:15.871Z,13.21
2023-01-12T00:25:58.698Z,13.21
2023-01-12T00:31:41.965Z,13.19
2023-01-12T00:37:24.845Z,13.2
2023-01-12T00:43:07.700Z,13.23
2023-01-12T00:48:50.643Z,13.23
2023-01-12T00:54:33.350Z,13.21
2023-01-12T01:00:16.309Z,13.2
2023-01-12T01:06:05.535Z,13.19
2023-01-12T01:11:48.415Z,13.2
2023-01-12T01:17:31.410Z,13.24
2023-01-12T01:23:14.344Z,13.22
2023-01-12T01:28:57.174Z,13.19
2023-01-12T01:34:40.424Z,13.18
2023-01-12T01:40:23.225Z,13.2
2023-01-12T01:46:09.452Z,13.19
2023-01-12T01:51:55.876Z,13.2
2023-01-12T01:57:41.772Z,13.19
2023-01-12T02:03:25.830Z,13.19
2023-01-12T02:09:11.367Z,13.2
2023-01-12T02:14:55.027Z,13.19
2023-01-12T02:20:42.530Z,13.2
2023-01-12T02:26:39.282Z,13.2
2023-01-12T02:32:27.078Z,13.22
2023-01-12T02:38:15.253Z,13.23
2023-01-12T02:43:58.394Z,13.22
2023-01-12T02:49:43.050Z,13.21
2023-01-12T02:55:26.995Z,13.22
2023-01-12T03:01:10.602Z,13.2
2023-01-12T03:07:04.684Z,13.19
2023-01-12T03:12:48.407Z,13.21
2023-01-12T03:18:34.174Z,13.22
2023-01-12T03:24:18.792Z,13.19
2023-01-12T03:30:04.422Z,13.18
2023-01-12T03:35:51.153Z,13.2
2023-01-12T03:41:37.879Z,13.18
2023-01-12T03:47:22.649Z,13.2
2023-01-12T03:53:07.398Z,13.19
2023-01-12T03:58:51.025Z,13.2
2023-01-12T04:04:34.128Z,13.2
2023-01-12T04:10:17.123Z,13.2
2023-01-12T04:16:00.785Z,13.21
2023-01-12T04:21:43.894Z,13.21
2023-01-12T04:27:26.649Z,13.18
2023-01-12T04:33:09.698Z,13.2
2023-01-12T04:38:52.507Z,13.18
2023-01-12T04:44:35.241Z,13.18
2023-01-12T04:50:18.070Z,13.16
2023-01-12T04:56:02.715Z,13.16
2023-01-12T05:01:45.824Z,13.16
2023-01-12T05:07:29.011Z,13.15
2023-01-12T05:13:12.900Z,13.19
2023-01-12T05:18:55.773Z,13.2
2023-01-12T05:24:38.633Z,13.19
2023-01-12T05:30:21.698Z,13.18
2023-01-12T05:36:07.995Z,13.21
2023-01-12T05:41:50.819Z,13.21
2023-01-12T05:47:33.756Z,13.23
2023-01-12T05:53:16.601Z,13.22
2023-01-12T05:59:00.796Z,13.2
2023-01-12T06:04:44.093Z,13.2
2023-01-12T06:10:27.312Z,13.22
2023-01-12T06:16:10.455Z,13.25
2023-01-12T06:21:53.922Z,13.24
2023-01-12T06:27:38.223Z,13.22
2023-01-12T06:33:22.184Z,13.22
2023-01-12T06:39:05.034Z,13.22
2023-01-12T06:44:48.891Z,13.22
2023-01-12T06:50:31.753Z,13.59
2023-01-12T06:56:14.437Z,13.9
2023-01-12T07:01:57.260Z,13.77
2023-01-12T07:07:40.769Z,13.55
2023-01-12T07:13:24.615Z,13.42
2023-01-12T07:19:07.686Z,13.36
2023-01-12T07:24:50.887Z,13.34
2023-01-12T07:30:35.879Z,13.32
2023-01-12T07:36:19.017Z,13.3
2023-01-12T07:42:02.142Z,13.3
2023-01-12T07:47:49.916Z,13.31
2023-01-12T07:53:32.816Z,13.32
2023-01-12T07:59:15.981Z,13.34
2023-01-12T08:04:58.935Z,13.36
2023-01-12T08:10:42.040Z,13.39
2023-01-12T08:16:29.397Z,13.44
2023-01-12T08:22:14.444Z,13.48
2023-01-12T08:27:59.194Z,13.48
2023-01-12T08:33:42.354Z,13.51
2023-01-12T08:39:25.419Z,13.52
2023-01-12T08:45:09.033Z,13.54
2023-01-12T08:50:52.046Z,13.57
2023-01-12T08:56:35.599Z,13.61
2023-01-12T09:02:18.645Z,13.63
2023-01-12T09:08:02.786Z,13.65
2023-01-12T09:13:45.579Z,13.67
2023-01-12T09:19:28.633Z,13.72
2023-01-12T09:25:11.926Z,13.75
2023-01-12T09:30:55.110Z,13.76
2023-01-12T09:36:38.529Z,13.79
2023-01-12T09:42:22.789Z,13.83
2023-01-12T09:48:09.870Z,13.92
2023-01-12T09:53:53.149Z,13.95
2023-01-12T09:59:40.347Z,13.98
2023-01-12T10:05:39.096Z,14.01
2023-01-12T10:11:25.681Z,14.07
2023-01-12T10:17:15.093Z,14.13
2023-01-12T10:23:00.727Z,14.12
2023-01-12T10:28:45.045Z,14.11
2023-01-12T10:34:33.739Z,14.13
2023-01-12T10:40:28.831Z,14.16
2023-01-12T10:46:16.176Z,14.22
2023-01-12T10:52:01.323Z,14.21
2023-01-12T10:57:46.590Z,14.21
2023-01-12T11:03:32.765Z,14.25
2023-01-12T11:09:22.631Z,14.32
2023-01-12T11:15:11.343Z,14.34
2023-01-12T11:20:56.495Z,14.39
2023-01-12T11:26:44.859Z,14.41
2023-01-12T11:32:37.762Z,14.41
2023-01-12T11:38:23.950Z,14.47
2023-01-12T11:44:12.004Z,14.48
2023-01-12T11:49:58.047Z,14.61
2023-01-12T11:55:49.143Z,14.65
2023-01-12T12:01:36.007Z,14.73
2023-01-12T12:07:28.535Z,14.77
2023-01-12T12:13:23.286Z,14.77
2023-01-12T12:19:15.916Z,14.78
2023-01-12T12:25:12.970Z,14.8
2023-01-12T12:31:10.136Z,14.82
2023-01-12T12:36:56.537Z,14.83
2023-01-12T12:42:51.699Z,14.85
2023-01-12T12:48:40.270Z,14.97
2023-01-12T12:54:24.482Z,15.03
2023-01-12T13:00:18.904Z,15.08
2023-01-12T13:06:10.077Z,15.12
2023-01-12T13:11:54.352Z,15.11
2023-01-12T13:17:44.451Z,15.12
2023-01-12T13:23:39.165Z,15.08
2023-01-12T13:29:34.416Z,15.05
2023-01-12T13:35:43.418Z,15.05
2023-01-12T13:41:28.925Z,15.08
2023-01-12T13:47:15.306Z,15.11
2023-01-12T13:53:02.386Z,15.06
2023-01-12T13:58:45.303Z,15.02
2023-01-12T14:04:35.641Z,14.99
2023-01-12T14:10:25.882Z,14.97
2023-01-12T14:16:09.907Z,14.95
2023-01-12T14:21:59.411Z,14.95
2023-01-12T14:27:47.055Z,14.95
2023-01-12T14:33:31.206Z,14.94
2023-01-12T14:39:15.806Z,14.92
2023-01-12T14:44:58.732Z,14.96
2023-01-12T14:50:46.486Z,14.9
2023-01-12T14:56:32.072Z,14.9
2023-01-12T15:02:25.188Z,14.88
2023-01-12T15:08:21.005Z,14.84
2023-01-12T15:14:04.846Z,14.84
2023-01-12T15:19:47.698Z,14.83
2023-01-12T15:25:30.550Z,14.78
2023-01-12T15:31:21.124Z,14.74
2023-01-12T15:37:04.262Z,14.7
2023-01-12T15:42:47.452Z,14.65
2023-01-12T15:48:33.163Z,14.65
2023-01-12T15:54:17.005Z,14.61
2023-01-12T15:59:59.867Z,14.61
2023-01-12T16:05:42.820Z,14.55
2023-01-12T16:11:25.617Z,14.5
2023-01-12T16:17:08.684Z,14.48
2023-01-12T16:22:51.642Z,14.46
2023-01-12T16:28:35.009Z,14.41
2023-01-12T16:34:18.352Z,14.39
2023-01-12T16:40:01.570Z,14.38
2023-01-12T16:45:44.387Z,14.37
2023-01-12T16:51:27.710Z,14.38
2023-01-12T16:57:11.423Z,14.35
2023-01-12T17:02:54.447Z,14.35
2023-01-12T17:08:38.340Z,14.34
2023-01-12T17:14:22.231Z,14.32
2023-01-12T17:20:06.363Z,14.34
2023-01-12T17:25:50.305Z,14.33
2023-01-12T17:31:36.347Z,14.34
2023-01-12T17:37:19.917Z,14.37
2023-01-12T17:43:02.824Z,14.34
2023-01-12T17:48:50.518Z,14.38
2023-01-12T17:54:33.823Z,14.35
2023-01-12T18:00:17.756Z,14.33
2023-01-12T18:06:04.674Z,14.33
2023-01-12T18:12:03.734Z,14.4
2023-01-12T18:17:46.635Z,14.55
2023-01-12T18:23:29.683Z,14.46
2023-01-12T18:29:12.664Z,14.37
2023-01-12T18:34:55.466Z,14.32
2023-01-12T18:40:38.413Z,14.27
2023-01-12T18:46:21.477Z,14.27
2023-01-12T18:52:04.674Z,14.44
2023-01-12T18:57:47.470Z,14.33
2023-01-12T19:03:30.455Z,14.27
2023-01-12T19:09:13.309Z,14.25
2023-01-12T19:14:56.054Z,14.23
2023-01-12T19:20:39.006Z,14.23
2023-01-12T19:26:21.837Z,14.22
2023-01-12T19:32:04.677Z,14.19
2023-01-12T19:37:50.088Z,14.17
2023-01-12T19:43:33.096Z,14.17
2023-01-12T19:49:15.961Z,14.17
2023-01-12T19:54:59.111Z,14.15
2023-01-12T20:00:42.771Z,14.12
2023-01-12T20:06:25.771Z,14.13
2023-01-12T20:12:08.760Z,14.14
2023-01-12T20:17:51.534Z,14.26
2023-01-12T20:23:34.361Z,14.19
2023-01-12T20:29:17.667Z,14.17
2023-01-12T20:35:01.822Z,14.17
2023-01-12T20:40:45.470Z,14.13
2023-01-12T20:46:28.260Z,14.17
2023-01-12T20:52:11.194Z,14.15
2023-01-12T20:57:54.126Z,14.13
2023-01-12T21:03:37.140Z,14.13
2023-01-12T21:09:20.133Z,14.11
2023-01-12T21:15:03.109Z,14.1
2023-01-12T21:20:46.079Z,14.11
2023-01-12T21:26:30.097Z,14.17
2023-01-12T21:32:15.806Z,14.17
2023-01-12T21:37:59.718Z,14.17
2023-01-12T21:43:42.899Z,14.15
2023-01-12T21:49:26.038Z,14.17
2023-01-12T21:55:09.224Z,14.21
2023-01-12T22:00:52.614Z,14.18
2023-01-12T22:06:36.722Z,14.2
2023-01-12T22:12:19.419Z,14.19
2023-01-12T22:18:02.151Z,14.22
2023-01-12T22:23:45.165Z,14.32
2023-01-12T22:29:28.171Z,14.23
2023-01-12T22:35:12.374Z,14.18
2023-01-12T22:40:55.292Z,14.15
2023-01-12T22:46:38.130Z,14.15
2023-01-12T22:52:20.997Z,14.24
2023-01-12T22:58:03.742Z,14.16
2023-01-12T23:03:46.532Z,14.1
2023-01-12T23:09:29.341Z,14.1
2023-01-12T23:15:12.271Z,14.04
2023-01-12T23:20:59.619Z,14.02
2023-01-12T23:26:43.634Z,14.01
2023-01-12T23:32:26.481Z,13.99
2023-01-12T23:38:12.932Z,13.97
2023-01-12T23:43:56.820Z,13.96
2023-01-12T23:49:39.558Z,14.01
2023-01-12T23:55:22.632Z,13.98
